Menu Horizontal
luftaufnahme
Willkommen auf der Webseite der privaten Wetterstation -- Taufkirchen an der Pram -- 48°24'29,52" Nord  <>  13°32'13,20" Ost

Wetterdaten - Mittwoch, 21.02.2024 - Taufkirchen an der Pram     336 m über NN
Wetterdaten: aktuell Mittwoch, 21.02.2024 17:10
Datum Zeit Temp. A. Feuchte A. Luftdruck Regen Wind Sonnenschein UV Solar Windchill Empfang
21.02.2024 17:10 11,7 °C 55 % 1018,8 hPa 0,0 l/m² 0,0 km/h 0 min 0,0 UV-I 20 W/m² 11,7 °C 100 %
21.02.2024 17:00 11,9 °C 53 % 1018,8 hPa 0,0 l/m² 0,0 km/h 0 min 0,0 UV-I 27 W/m² 11,9 °C 100 %
21.02.2024 16:50 12,1 °C 51 % 1018,9 hPa 0,0 l/m² 0,0 km/h 0 min 0,0 UV-I 37 W/m² 12,1 °C 100 %
21.02.2024 16:40 12,4 °C 49 % 1018,8 hPa 0,0 l/m² 0,0 km/h 0 min 0,0 UV-I 43 W/m² 12,4 °C 100 %
21.02.2024 16:30 12,6 °C 48 % 1018,9 hPa 0,0 l/m² 0,0 km/h 0 min 0,0 UV-I 49 W/m² 12,6 °C 94 %
21.02.2024 16:20 12,8 °C 47 % 1019,1 hPa 0,0 l/m² 0,0 km/h 0 min 0,0 UV-I 68 W/m² 12,8 °C 97 %
21.02.2024 16:10 13,2 °C 46 % 1019,2 hPa 0,0 l/m² 0,0 km/h 0 min 0,5 UV-I 84 W/m² 13,2 °C 100 %
21.02.2024 16:00 13,4 °C 47 % 1019,3 hPa 0,0 l/m² 0,2 km/h 10 min 0,6 UV-I 116 W/m² 13,4 °C 100 %
21.02.2024 15:50 13,6 °C 48 % 1019,4 hPa 0,0 l/m² 0,0 km/h 10 min 0,6 UV-I 102 W/m² 13,6 °C 100 %
21.02.2024 15:40 13,7 °C 48 % 1019,5 hPa 0,0 l/m² 0,1 km/h 10 min 0,7 UV-I 151 W/m² 13,7 °C 100 %
21.02.2024 15:30 13,4 °C 48 % 1019,6 hPa 0,0 l/m² 0,0 km/h 10 min 0,8 UV-I 264 W/m² 13,4 °C 100 %
21.02.2024 15:20 13,3 °C 49 % 1019,7 hPa 0,0 l/m² 0,1 km/h 10 min 0,9 UV-I 261 W/m² 13,3 °C 100 %
21.02.2024 15:10 13,2 °C 49 % 1020,0 hPa 0,0 l/m² 0,0 km/h 10 min 1,0 UV-I 260 W/m² 13,2 °C 100 %
21.02.2024 15:00 13,0 °C 48 % 1020,3 hPa 0,0 l/m² 0,3 km/h 10 min 1,1 UV-I 284 W/m² 13,0 °C 100 %
21.02.2024 14:50 12,9 °C 49 % 1020,6 hPa 0,0 l/m² 0,1 km/h 10 min 1,2 UV-I 330 W/m² 12,9 °C 100 %
21.02.2024 14:40 12,9 °C 51 % 1020,6 hPa 0,0 l/m² 1,5 km/h 10 min 1,2 UV-I 307 W/m² 12,9 °C 99 %
21.02.2024 14:30 12,9 °C 51 % 1020,8 hPa 0,0 l/m² 1,7 km/h 10 min 1,3 UV-I 318 W/m² 12,9 °C 100 %
21.02.2024 14:20 12,9 °C 53 % 1021,0 hPa 0,0 l/m² 1,7 km/h 10 min 1,4 UV-I 323 W/m² 12,9 °C 99 %
21.02.2024 14:10 13,0 °C 54 % 1021,2 hPa 0,0 l/m² 1,7 km/h 10 min 1,5 UV-I 335 W/m² 13,0 °C 100 %
21.02.2024 14:00 12,8 °C 56 % 1021,5 hPa 0,0 l/m² 1,4 km/h 10 min 1,6 UV-I 395 W/m² 12,8 °C 100 %
21.02.2024 13:50 12,6 °C 57 % 1021,6 hPa 0,0 l/m² 1,1 km/h 10 min 1,7 UV-I 388 W/m² 12,6 °C 100 %
21.02.2024 13:40 12,3 °C 59 % 1021,8 hPa 0,0 l/m² 2,5 km/h 10 min 1,7 UV-I 388 W/m² 12,3 °C 100 %
21.02.2024 13:30 11,8 °C 60 % 1022,0 hPa 0,0 l/m² 1,2 km/h 10 min 1,8 UV-I 418 W/m² 11,8 °C 99 %
21.02.2024 13:20 11,7 °C 59 % 1022,2 hPa 0,0 l/m² 1,2 km/h 10 min 1,9 UV-I 434 W/m² 11,7 °C 100 %
21.02.2024 13:10 11,3 °C 60 % 1022,4 hPa 0,0 l/m² 1,4 km/h 10 min 2,0 UV-I 455 W/m² 11,3 °C 99 %
21.02.2024 13:00 11,3 °C 61 % 1022,7 hPa 0,0 l/m² 3,4 km/h 10 min 2,1 UV-I 449 W/m² 11,3 °C 100 %
21.02.2024 12:50 11,3 °C 62 % 1022,9 hPa 0,0 l/m² 2,9 km/h 20 min 2,1 UV-I 438 W/m² 11,3 °C 100 %
21.02.2024 12:30 11,1 °C 62 % 1023,4 hPa 0,0 l/m² 5,8 km/h 10 min 2,1 UV-I 430 W/m² 11,1 °C 100 %
21.02.2024 12:20 11,1 °C 64 % 1023,3 hPa 0,0 l/m² 1,6 km/h 10 min 2,1 UV-I 431 W/m² 11,1 °C 100 %
21.02.2024 12:10 10,7 °C 65 % 1023,6 hPa 0,0 l/m² 1,5 km/h 20 min 2,1 UV-I 439 W/m² 10,7 °C 100 %
21.02.2024 11:50 10,1 °C 70 % 1023,9 hPa 0,0 l/m² 0,5 km/h 10 min 2,0 UV-I 433 W/m² 10,1 °C 100 %
21.02.2024 11:40 9,7 °C 68 % 1024,0 hPa 0,0 l/m² 0,6 km/h 10 min 2,0 UV-I 430 W/m² 9,7 °C 100 %
21.02.2024 11:30 9,4 °C 69 % 1024,3 hPa 0,0 l/m² 0,6 km/h 10 min 2,0 UV-I 437 W/m² 9,4 °C 100 %
21.02.2024 11:20 9,1 °C 71 % 1024,4 hPa 0,0 l/m² 0,0 km/h 20 min 1,9 UV-I 442 W/m² 9,1 °C 100 %
21.02.2024 11:00 8,3 °C 72 % 1024,7 hPa 0,0 l/m² 2,2 km/h 10 min 1,4 UV-I 167 W/m² 8,3 °C 100 %
21.02.2024 10:50 8,3 °C 72 % 1024,8 hPa 0,0 l/m² 2,3 km/h 10 min 1,5 UV-I 290 W/m² 8,3 °C 100 %
21.02.2024 10:40 8,1 °C 73 % 1024,8 hPa 0,0 l/m² 3,8 km/h 10 min 1,5 UV-I 303 W/m² 8,1 °C 99 %
21.02.2024 10:30 7,9 °C 73 % 1024,9 hPa 0,0 l/m² 2,0 km/h 10 min 1,3 UV-I 243 W/m² 7,9 °C 98 %
21.02.2024 10:20 7,7 °C 74 % 1024,9 hPa 0,0 l/m² 1,8 km/h 10 min 1,3 UV-I 269 W/m² 7,7 °C 100 %
21.02.2024 10:10 7,4 °C 75 % 1024,9 hPa 0,0 l/m² 0,8 km/h 10 min 1,1 UV-I 193 W/m² 7,4 °C 99 %
21.02.2024 10:00 7,2 °C 77 % 1025,0 hPa 0,0 l/m² 1,0 km/h 10 min 1,1 UV-I 196 W/m² 7,2 °C 100 %
21.02.2024 09:50 6,9 °C 77 % 1025,2 hPa 0,0 l/m² 3,8 km/h 10 min 1,0 UV-I 223 W/m² 6,9 °C 100 %
21.02.2024 09:40 6,7 °C 78 % 1025,3 hPa 0,0 l/m² 5,5 km/h 10 min 1,2 UV-I 357 W/m² 6,7 °C 100 %
21.02.2024 09:30 6,3 °C 78 % 1025,2 hPa 0,0 l/m² 4,2 km/h 10 min 0,9 UV-I 219 W/m² 6,3 °C 99 %
21.02.2024 09:20 6,2 °C 79 % 1025,3 hPa 0,0 l/m² 2,9 km/h 10 min 0,8 UV-I 126 W/m² 6,2 °C 100 %
21.02.2024 09:10 6,1 °C 79 % 1025,5 hPa 0,0 l/m² 4,5 km/h 0 min 0,7 UV-I 100 W/m² 6,1 °C 100 %
21.02.2024 09:00 5,8 °C 80 % 1025,6 hPa 0,0 l/m² 3,0 km/h 10 min 0,6 UV-I 185 W/m² 5,8 °C 100 %
21.02.2024 08:50 5,4 °C 81 % 1025,6 hPa 0,0 l/m² 0,0 km/h 10 min 0,6 UV-I 125 W/m² 5,4 °C 100 %
21.02.2024 08:40 5,3 °C 81 % 1025,6 hPa 0,0 l/m² 0,0 km/h 0 min 0,2 UV-I 51 W/m² 5,3 °C 100 %
21.02.2024 08:30 5,3 °C 81 % 1025,8 hPa 0,0 l/m² 0,0 km/h 0 min 0,0 UV-I 29 W/m² 5,3 °C 100 %
21.02.2024 08:20 5,3 °C 82 % 1025,9 hPa 0,0 l/m² 0,0 km/h 0 min 0,0 UV-I 29 W/m² 5,3 °C 100 %
21.02.2024 08:10 5,2 °C 82 % 1025,9 hPa 0,0 l/m² 1,6 km/h 0 min 0,0 UV-I 35 W/m² 5,2 °C 100 %
21.02.2024 08:00 5,1 °C 83 % 1025,9 hPa 0,0 l/m² 1,6 km/h 0 min 0,0 UV-I 46 W/m² 5,1 °C 91 %
21.02.2024 07:50 4,8 °C 84 % 1026,0 hPa 0,0 l/m² 0,0 km/h 0 min 0,0 UV-I 33 W/m² 4,8 °C 100 %
21.02.2024 07:40 4,7 °C 84 % 1026,0 hPa 0,0 l/m² 0,0 km/h 0 min 0,0 UV-I 22 W/m² 4,7 °C 100 %
21.02.2024 07:30 4,5 °C 85 % 1026,0 hPa 0,0 l/m² 1,6 km/h 0 min 0,0 UV-I 14 W/m² 4,5 °C 94 %
21.02.2024 07:20 4,2 °C 86 % 1026,1 hPa 0,0 l/m² 0,0 km/h 0 min 0,0 UV-I 8 W/m² 4,2 °C 100 %
21.02.2024 07:10 4,1 °C 87 % 1026,1 hPa 0,0 l/m² 0,0 km/h 0 min 0,0 UV-I 1 W/m² 4,1 °C 100 %
21.02.2024 07:00 4,1 °C 87 % 1026,0 hPa 0,0 l/m² 0,0 km/h 0 min 0,0 UV-I 0 W/m² 4,1 °C 100 %
21.02.2024 06:50 4,2 °C 87 % 1026,2 hPa 0,0 l/m² 0,0 km/h 0 min 0,0 UV-I 0 W/m² 4,2 °C 100 %
21.02.2024 06:40 4,1 °C 86 % 1026,2 hPa 0,0 l/m² 0,0 km/h 0 min 0,0 UV-I 0 W/m² 4,1 °C 100 %
21.02.2024 06:30 4,1 °C 86 % 1026,3 hPa 0,0 l/m² 0,0 km/h 0 min 0,0 UV-I 0 W/m² 4,1 °C 100 %
21.02.2024 06:20 4,2 °C 85 % 1026,4 hPa 0,0 l/m² 0,0 km/h 0 min 0,0 UV-I 0 W/m² 4,2 °C 100 %
21.02.2024 06:10 4,2 °C 86 % 1026,5 hPa 0,0 l/m² 0,0 km/h 0 min 0,0 UV-I 0 W/m² 4,2 °C 100 %
21.02.2024 06:00 4,2 °C 86 % 1026,6 hPa 0,0 l/m² 0,0 km/h 0 min 0,0 UV-I 0 W/m² 4,2 °C 100 %
21.02.2024 05:50 4,3 °C 86 % 1026,8 hPa 0,0 l/m² 0,0 km/h 0 min 0,0 UV-I 0 W/m² 4,3 °C 100 %
21.02.2024 05:40 4,3 °C 85 % 1026,9 hPa 0,0 l/m² 0,0 km/h 0 min 0,0 UV-I 0 W/m² 4,3 °C 100 %
21.02.2024 05:30 4,3 °C 85 % 1026,9 hPa 0,0 l/m² 0,0 km/h 0 min 0,0 UV-I 0 W/m² 4,3 °C 100 %
21.02.2024 05:20 4,4 °C 85 % 1027,0 hPa 0,0 l/m² 0,0 km/h 0 min 0,0 UV-I 0 W/m² 4,4 °C 100 %
21.02.2024 05:10 4,4 °C 85 % 1027,0 hPa 0,0 l/m² 0,0 km/h 0 min 0,0 UV-I 0 W/m² 4,4 °C 100 %
21.02.2024 05:00 4,4 °C 84 % 1027,0 hPa 0,0 l/m² 0,0 km/h 0 min 0,0 UV-I 0 W/m² 4,4 °C 100 %
21.02.2024 04:50 4,5 °C 83 % 1027,0 hPa 0,0 l/m² 0,0 km/h 0 min 0,0 UV-I 0 W/m² 4,5 °C 100 %
21.02.2024 04:40 4,6 °C 83 % 1027,0 hPa 0,0 l/m² 0,0 km/h 0 min 0,0 UV-I 0 W/m² 4,6 °C 100 %
21.02.2024 04:30 4,8 °C 82 % 1026,9 hPa 0,0 l/m² 0,0 km/h 0 min 0,0 UV-I 0 W/m² 4,8 °C 100 %
21.02.2024 04:20 4,8 °C 82 % 1027,0 hPa 0,0 l/m² 0,0 km/h 0 min 0,0 UV-I 0 W/m² 4,8 °C 100 %
21.02.2024 04:10 4,9 °C 82 % 1027,1 hPa 0,0 l/m² 0,0 km/h 0 min 0,0 UV-I 0 W/m² 4,9 °C 100 %
21.02.2024 04:00 4,9 °C 82 % 1027,2 hPa 0,0 l/m² 0,0 km/h 0 min 0,0 UV-I 0 W/m² 4,9 °C 100 %
21.02.2024 03:50 5,1 °C 82 % 1027,2 hPa 0,0 l/m² 0,0 km/h 0 min 0,0 UV-I 0 W/m² 5,1 °C 100 %
21.02.2024 03:40 5,1 °C 83 % 1027,4 hPa 0,0 l/m² 0,0 km/h 0 min 0,0 UV-I 0 W/m² 5,1 °C 100 %
21.02.2024 03:30 5,1 °C 84 % 1027,5 hPa 0,0 l/m² 0,0 km/h 0 min 0,0 UV-I 0 W/m² 5,1 °C 100 %
21.02.2024 03:20 5,1 °C 84 % 1027,6 hPa 0,0 l/m² 0,0 km/h 0 min 0,0 UV-I 0 W/m² 5,1 °C 100 %
21.02.2024 03:10 5,1 °C 84 % 1027,6 hPa 0,0 l/m² 0,0 km/h 0 min 0,0 UV-I 0 W/m² 5,1 °C 100 %
21.02.2024 03:00 5,2 °C 84 % 1027,7 hPa 0,0 l/m² 0,0 km/h 0 min 0,0 UV-I 0 W/m² 5,2 °C 100 %
21.02.2024 02:50 5,2 °C 84 % 1027,8 hPa 0,0 l/m² 0,0 km/h 0 min 0,0 UV-I 0 W/m² 5,2 °C 100 %
21.02.2024 02:40 5,2 °C 84 % 1028,0 hPa 0,0 l/m² 0,0 km/h 0 min 0,0 UV-I 0 W/m² 5,2 °C 100 %
21.02.2024 02:30 5,2 °C 84 % 1028,0 hPa 0,0 l/m² 0,0 km/h 0 min 0,0 UV-I 0 W/m² 5,2 °C 100 %
21.02.2024 02:20 5,2 °C 84 % 1028,1 hPa 0,0 l/m² 0,0 km/h 0 min 0,0 UV-I 0 W/m² 5,2 °C 100 %
21.02.2024 02:10 5,2 °C 84 % 1028,2 hPa 0,0 l/m² 0,0 km/h 0 min 0,0 UV-I 0 W/m² 5,2 °C 100 %
21.02.2024 02:00 5,2 °C 84 % 1028,3 hPa 0,0 l/m² 0,0 km/h 0 min 0,0 UV-I 0 W/m² 5,2 °C 100 %
21.02.2024 01:50 5,3 °C 84 % 1028,4 hPa 0,0 l/m² 0,0 km/h 0 min 0,0 UV-I 0 W/m² 5,3 °C 93 %
21.02.2024 01:40 5,4 °C 83 % 1028,4 hPa 0,0 l/m² 0,0 km/h 0 min 0,0 UV-I 0 W/m² 5,4 °C 100 %
21.02.2024 01:30 5,4 °C 83 % 1028,4 hPa 0,0 l/m² 0,0 km/h 0 min 0,0 UV-I 0 W/m² 5,4 °C 100 %
21.02.2024 01:20 5,5 °C 82 % 1028,5 hPa 0,0 l/m² 0,0 km/h 0 min 0,0 UV-I 0 W/m² 5,5 °C 100 %
21.02.2024 01:10 5,6 °C 82 % 1028,6 hPa 0,0 l/m² 0,0 km/h 0 min 0,0 UV-I 0 W/m² 5,6 °C 100 %
21.02.2024 01:00 5,6 °C 82 % 1028,6 hPa 0,0 l/m² 0,0 km/h 0 min 0,0 UV-I 0 W/m² 5,6 °C 100 %
21.02.2024 00:50 5,7 °C 81 % 1028,7 hPa 0,0 l/m² 0,0 km/h 0 min 0,0 UV-I 0 W/m² 5,7 °C 100 %
21.02.2024 00:40 5,8 °C 81 % 1028,8 hPa 0,0 l/m² 0,0 km/h 0 min 0,0 UV-I 0 W/m² 5,8 °C 100 %
21.02.2024 00:30 5,9 °C 81 % 1028,8 hPa 0,0 l/m² 0,0 km/h 0 min 0,0 UV-I 0 W/m² 5,9 °C 100 %
21.02.2024 00:20 5,9 °C 81 % 1028,8 hPa 0,0 l/m² 1,6 km/h 0 min 0,0 UV-I 0 W/m² 5,9 °C 100 %
21.02.2024 00:10 5,9 °C 81 % 1028,9 hPa 0,0 l/m² 1,6 km/h 0 min 0,0 UV-I 0 W/m² 5,9 °C 100 %
21.02.2024 00:00 5,9 °C 81 % 1028,9 hPa 0,0 l/m² 1,6 km/h 0 min 0,0 UV-I 0 W/m² 5,9 °C 100 %
20.02.2024 23:50 5,9 °C 81 % 1029,0 hPa 0,0 l/m² 3,2 km/h 0 min 0,0 UV-I 0 W/m² 5,9 °C 100 %
20.02.2024 23:40 6,0 °C 81 % 1029,0 hPa 0,0 l/m² 1,6 km/h 0 min 0,0 UV-I 0 W/m² 6,0 °C 100 %
20.02.2024 23:30 6,1 °C 81 % 1029,0 hPa 0,0 l/m² 1,6 km/h 0 min 0,0 UV-I 0 W/m² 6,1 °C 100 %
20.02.2024 23:20 6,1 °C 81 % 1029,1 hPa 0,0 l/m² 3,2 km/h 0 min 0,0 UV-I 0 W/m² 6,1 °C 100 %
20.02.2024 23:10 6,2 °C 81 % 1029,1 hPa 0,0 l/m² 3,2 km/h 0 min 0,0 UV-I 0 W/m² 6,2 °C 100 %
20.02.2024 23:00 6,1 °C 81 % 1029,1 hPa 0,0 l/m² 3,2 km/h 0 min 0,0 UV-I 0 W/m² 6,1 °C 100 %
20.02.2024 22:50 6,2 °C 82 % 1029,1 hPa 0,0 l/m² 1,6 km/h 0 min 0,0 UV-I 0 W/m² 6,2 °C 100 %
20.02.2024 22:40 6,2 °C 82 % 1029,2 hPa 0,0 l/m² 1,6 km/h 0 min 0,0 UV-I 0 W/m² 6,2 °C 100 %
20.02.2024 22:30 6,1 °C 82 % 1029,1 hPa 0,0 l/m² 1,6 km/h 0 min 0,0 UV-I 0 W/m² 6,1 °C 100 %
20.02.2024 22:20 6,1 °C 83 % 1029,1 hPa 0,0 l/m² 1,6 km/h 0 min 0,0 UV-I 0 W/m² 6,1 °C 100 %
20.02.2024 22:10 6,1 °C 83 % 1029,1 hPa 0,0 l/m² 0,0 km/h 0 min 0,0 UV-I 0 W/m² 6,1 °C 100 %
20.02.2024 22:00 6,1 °C 83 % 1029,2 hPa 0,0 l/m² 1,6 km/h 0 min 0,0 UV-I 0 W/m² 6,1 °C 100 %
20.02.2024 21:50 6,0 °C 83 % 1029,3 hPa 0,0 l/m² 0,0 km/h 0 min 0,0 UV-I 0 W/m² 6,0 °C 100 %
20.02.2024 21:40 5,9 °C 83 % 1029,3 hPa 0,0 l/m² 0,0 km/h 0 min 0,0 UV-I 0 W/m² 5,9 °C 100 %
20.02.2024 21:30 6,1 °C 82 % 1029,4 hPa 0,0 l/m² 0,0 km/h 0 min 0,0 UV-I 0 W/m² 6,1 °C 100 %
20.02.2024 21:20 6,2 °C 81 % 1029,5 hPa 0,0 l/m² 0,0 km/h 0 min 0,0 UV-I 0 W/m² 6,2 °C 100 %
20.02.2024 21:10 6,3 °C 80 % 1029,5 hPa 0,0 l/m² 0,0 km/h 0 min 0,0 UV-I 0 W/m² 6,3 °C 100 %
20.02.2024 21:00 6,4 °C 80 % 1029,5 hPa 0,0 l/m² 0,0 km/h 0 min 0,0 UV-I 0 W/m² 6,4 °C 100 %
20.02.2024 20:50 6,5 °C 79 % 1029,4 hPa 0,0 l/m² 0,0 km/h 0 min 0,0 UV-I 0 W/m² 6,5 °C 100 %
20.02.2024 20:40 6,6 °C 79 % 1029,5 hPa 0,0 l/m² 0,0 km/h 0 min 0,0 UV-I 0 W/m² 6,6 °C 99 %
20.02.2024 20:30 6,7 °C 79 % 1029,5 hPa 0,0 l/m² 0,0 km/h 0 min 0,0 UV-I 0 W/m² 6,7 °C 100 %
20.02.2024 20:20 6,8 °C 79 % 1029,4 hPa 0,0 l/m² 0,2 km/h 0 min 0,0 UV-I 0 W/m² 6,8 °C 100 %
20.02.2024 20:10 6,9 °C 78 % 1029,4 hPa 0,0 l/m² 0,0 km/h 0 min 0,0 UV-I 0 W/m² 6,9 °C 99 %
20.02.2024 20:00 7,0 °C 78 % 1029,5 hPa 0,0 l/m² 0,1 km/h 0 min 0,0 UV-I 0 W/m² 7,0 °C 100 %
20.02.2024 19:50 7,1 °C 78 % 1029,5 hPa 0,0 l/m² 2,0 km/h 0 min 0,0 UV-I 0 W/m² 7,1 °C 99 %
20.02.2024 19:40 7,1 °C 79 % 1029,5 hPa 0,0 l/m² 1,0 km/h 0 min 0,0 UV-I 0 W/m² 7,1 °C 100 %
20.02.2024 19:30 7,1 °C 79 % 1029,6 hPa 0,0 l/m² 0,8 km/h 0 min 0,0 UV-I 0 W/m² 7,1 °C 100 %
20.02.2024 19:20 7,2 °C 80 % 1029,6 hPa 0,0 l/m² 0,2 km/h 0 min 0,0 UV-I 0 W/m² 7,2 °C 100 %
20.02.2024 19:10 7,2 °C 80 % 1029,5 hPa 0,0 l/m² 0,6 km/h 0 min 0,0 UV-I 0 W/m² 7,2 °C 99 %
20.02.2024 19:00 7,3 °C 80 % 1029,5 hPa 0,0 l/m² 2,0 km/h 0 min 0,0 UV-I 0 W/m² 7,3 °C 100 %
20.02.2024 18:50 7,2 °C 81 % 1029,6 hPa 0,0 l/m² 2,7 km/h 0 min 0,0 UV-I 0 W/m² 7,2 °C 100 %
20.02.2024 18:40 7,2 °C 81 % 1029,5 hPa 0,0 l/m² 2,9 km/h 0 min 0,0 UV-I 0 W/m² 7,2 °C 100 %
20.02.2024 18:30 7,1 °C 82 % 1029,4 hPa 0,0 l/m² 2,4 km/h 0 min 0,0 UV-I 0 W/m² 7,1 °C 100 %
20.02.2024 18:20 7,0 °C 83 % 1029,3 hPa 0,0 l/m² 2,6 km/h 0 min 0,0 UV-I 0 W/m² 7,0 °C 100 %
20.02.2024 18:10 7,1 °C 83 % 1029,2 hPa 0,0 l/m² 0,1 km/h 0 min 0,0 UV-I 0 W/m² 7,1 °C 100 %
20.02.2024 18:00 7,1 °C 83 % 1029,1 hPa 0,0 l/m² 0,0 km/h 0 min 0,0 UV-I 0 W/m² 7,1 °C 92 %
_ Min-Zeit 07:10 16:10 17:10 - 17:10 - - - 07:10 08:00
Minimum _ 4,1 °C 46 % 1018,8 hPa - 0,0 km/h - - - 4,1 °C 91 %
_ Max-Zeit 15:40 07:10 19:30 17:10 12:30 12:50 13:00 13:10 15:40 17:10
Maximum _ 13,7 °C 87 % 1029,6 hPa 0,0 l/m² 5,8 km/h
NW
20 min 2,1 UV-I 455 W/m² 13,7 °C 100 %
Durchschnitt _ 7,4 °C 76 % 1026,2 hPa #0,0 l/m² 0,8 km/h #7:10 h 1,4 UV-I 138 W/m² 7,4 °C 99 %